createdAt,value
2017-02-18T00:00:27.501Z,0
2017-02-18T00:01:36.570Z,0
2017-02-18T00:02:45.629Z,0
2017-02-18T00:03:54.712Z,0
2017-02-18T00:05:04.155Z,0
2017-02-18T00:06:13.211Z,0
2017-02-18T00:07:22.677Z,0
2017-02-18T00:08:32.128Z,0
2017-02-18T00:09:41.195Z,0
2017-02-18T00:10:50.643Z,0
2017-02-18T00:12:00.087Z,0
2017-02-18T00:13:09.535Z,0
2017-02-18T00:14:18.605Z,0
2017-02-18T00:15:27.671Z,0
2017-02-18T00:16:37.146Z,0
2017-02-18T00:17:46.202Z,0
2017-02-18T00:18:55.286Z,0
2017-02-18T00:20:04.033Z,0
2017-02-18T00:21:13.505Z,0
2017-02-18T00:22:22.955Z,0
2017-02-18T00:23:32.407Z,0
2017-02-18T00:24:41.855Z,0
2017-02-18T00:25:50.928Z,0
2017-02-18T00:27:00.395Z,0
2017-02-18T00:28:09.451Z,0
2017-02-18T00:29:18.138Z,0
2017-02-18T00:30:27.591Z,0
2017-02-18T00:31:37.037Z,0
2017-02-18T00:32:46.112Z,0
2017-02-18T00:33:55.178Z,0
2017-02-18T00:35:04.638Z,0
2017-02-18T00:36:14.482Z,0
2017-02-18T00:37:23.178Z,0
2017-02-18T00:38:32.621Z,0
2017-02-18T00:39:42.066Z,0
2017-02-18T00:40:51.921Z,0
2017-02-18T00:42:00.615Z,0
2017-02-18T00:43:10.446Z,0
2017-02-18T00:44:19.896Z,0
2017-02-18T00:45:28.605Z,0
2017-02-18T00:46:37.291Z,0
2017-02-18T00:47:47.137Z,0
2017-02-18T00:48:56.590Z,0
2017-02-18T00:50:06.044Z,0
2017-02-18T00:51:15.112Z,0
2017-02-18T00:52:23.789Z,0
2017-02-18T00:53:32.851Z,0
2017-02-18T00:54:42.672Z,0
2017-02-18T00:55:51.736Z,0
2017-02-18T00:57:00.803Z,0
2017-02-18T00:58:09.875Z,0
2017-02-18T00:59:18.974Z,0
2017-02-18T01:00:28.058Z,0
2017-02-18T01:01:37.118Z,0
2017-02-18T01:02:46.579Z,0
2017-02-18T01:03:55.635Z,0
2017-02-18T01:05:04.711Z,0
2017-02-18T01:06:13.776Z,0
2017-02-18T01:07:23.229Z,0
2017-02-18T01:08:31.921Z,0
2017-02-18T01:09:40.998Z,0
2017-02-18T01:10:50.463Z,0
2017-02-18T01:11:59.917Z,0
2017-02-18T01:13:09.391Z,0
2017-02-18T01:14:19.214Z,0
2017-02-18T01:15:28.666Z,0
2017-02-18T01:16:38.108Z,0
2017-02-18T01:17:47.186Z,0
2017-02-18T01:18:56.247Z,0
2017-02-18T01:20:05.348Z,0
2017-02-18T01:21:14.407Z,0
2017-02-18T01:22:23.480Z,0
2017-02-18T01:23:33.367Z,0
2017-02-18T01:24:42.432Z,0
2017-02-18T01:25:52.267Z,0
2017-02-18T01:27:02.113Z,0
2017-02-18T01:28:11.197Z,0
2017-02-18T01:29:20.640Z,0
2017-02-18T01:30:29.333Z,0
2017-02-18T01:31:38.780Z,0
2017-02-18T01:32:48.246Z,0
2017-02-18T01:33:57.344Z,0
2017-02-18T01:35:06.804Z,0
2017-02-18T01:36:15.867Z,0
2017-02-18T01:37:25.301Z,0
2017-02-18T01:38:34.738Z,0
2017-02-18T01:39:44.555Z,0
2017-02-18T01:40:53.235Z,0
2017-02-18T01:42:02.689Z,0
2017-02-18T01:43:12.525Z,0
2017-02-18T01:44:21.218Z,0
2017-02-18T01:45:30.669Z,0
2017-02-18T01:46:40.104Z,0
2017-02-18T01:47:48.796Z,0
2017-02-18T01:48:57.493Z,0
2017-02-18T01:50:06.947Z,0
2017-02-18T01:51:16.015Z,0
2017-02-18T01:52:25.078Z,0
2017-02-18T01:53:34.519Z,0
2017-02-18T01:54:44.742Z,0
2017-02-18T01:55:54.184Z,0
2017-02-18T01:57:02.867Z,0
2017-02-18T01:58:12.322Z,0
2017-02-18T01:59:21.390Z,0
2017-02-18T02:00:30.107Z,0
2017-02-18T02:01:39.941Z,0
2017-02-18T02:02:49.764Z,0
2017-02-18T02:03:59.594Z,0
2017-02-18T02:05:09.072Z,0
2017-02-18T02:06:18.515Z,0
2017-02-18T02:07:28.741Z,0
2017-02-18T02:08:37.423Z,0
2017-02-18T02:09:46.515Z,0
2017-02-18T02:10:55.971Z,0
2017-02-18T02:12:05.032Z,0
2017-02-18T02:13:14.122Z,0
2017-02-18T02:14:23.581Z,0
2017-02-18T02:15:33.032Z,0
2017-02-18T02:16:43.238Z,0
2017-02-18T02:17:53.443Z,0
2017-02-18T02:19:02.915Z,0
2017-02-18T02:20:12.368Z,0
2017-02-18T02:21:21.834Z,0
2017-02-18T02:22:30.929Z,0
2017-02-18T02:23:40.014Z,0
2017-02-18T02:24:49.859Z,0
2017-02-18T02:25:58.545Z,0
2017-02-18T02:27:07.611Z,0
2017-02-18T02:28:16.312Z,0
2017-02-18T02:29:25.384Z,0
2017-02-18T02:30:34.829Z,0
2017-02-18T02:31:44.269Z,0
2017-02-18T02:32:53.328Z,0
2017-02-18T02:34:02.777Z,0
2017-02-18T02:35:11.852Z,0
2017-02-18T02:36:21.300Z,0
2017-02-18T02:37:30.765Z,0
2017-02-18T02:38:39.832Z,0
2017-02-18T02:39:49.282Z,0
2017-02-18T02:40:59.121Z,0
2017-02-18T02:42:08.194Z,0
2017-02-18T02:43:17.249Z,0
2017-02-18T02:44:26.320Z,0
2017-02-18T02:45:35.396Z,0
2017-02-18T02:46:44.478Z,0
2017-02-18T02:47:53.200Z,0
2017-02-18T02:49:03.035Z,0
2017-02-18T02:50:12.114Z,0
2017-02-18T02:51:21.168Z,0
2017-02-18T02:52:30.224Z,0
2017-02-18T02:53:39.292Z,0
2017-02-18T02:54:48.752Z,0
2017-02-18T02:55:58.195Z,0
2017-02-18T02:57:06.892Z,0
2017-02-18T02:58:15.584Z,0
2017-02-18T02:59:25.070Z,0
2017-02-18T03:00:34.508Z,0
2017-02-18T03:01:43.572Z,0
2017-02-18T03:02:53.397Z,0
2017-02-18T03:04:02.854Z,0
2017-02-18T03:05:12.322Z,0
2017-02-18T03:06:21.784Z,0
2017-02-18T03:07:31.247Z,0
2017-02-18T03:08:41.839Z,0
2017-02-18T03:09:50.908Z,0
2017-02-18T03:11:00.369Z,0
2017-02-18T03:12:10.594Z,0
2017-02-18T03:13:19.662Z,0
2017-02-18T03:14:28.330Z,0
2017-02-18T03:15:37.429Z,0
2017-02-18T03:16:46.485Z,0
2017-02-18T03:17:55.163Z,0
2017-02-18T03:19:03.848Z,0
2017-02-18T03:20:13.731Z,0
2017-02-18T03:21:23.566Z,0
2017-02-18T03:22:32.644Z,0
2017-02-18T03:23:41.367Z,0
2017-02-18T03:24:50.428Z,0
2017-02-18T03:25:59.498Z,0
2017-02-18T03:27:08.945Z,0
2017-02-18T03:28:18.399Z,0
2017-02-18T03:29:27.865Z,0
2017-02-18T03:30:36.958Z,0
2017-02-18T03:31:46.023Z,0
2017-02-18T03:32:54.714Z,0
2017-02-18T03:34:03.783Z,0
2017-02-18T03:35:12.857Z,0
2017-02-18T03:36:22.310Z,0
2017-02-18T03:37:30.990Z,0
2017-02-18T03:38:40.467Z,0
2017-02-18T03:39:49.545Z,0
2017-02-18T03:40:59.015Z,0
2017-02-18T03:42:08.473Z,0
2017-02-18T03:43:17.547Z,0
2017-02-18T03:44:26.903Z,0
2017-02-18T03:45:36.744Z,0
2017-02-18T03:46:45.812Z,0
2017-02-18T03:47:56.038Z,0
2017-02-18T03:49:05.493Z,0
2017-02-18T03:50:14.563Z,0
2017-02-18T03:51:23.268Z,0
2017-02-18T03:52:32.728Z,0
2017-02-18T03:53:42.225Z,0
2017-02-18T03:54:51.839Z,0
2017-02-18T03:56:01.021Z,0
2017-02-18T03:57:10.093Z,0
2017-02-18T03:58:20.316Z,0
2017-02-18T03:59:29.012Z,0
2017-02-18T04:00:38.096Z,0
2017-02-18T04:01:47.204Z,0
2017-02-18T04:02:56.265Z,0
2017-02-18T04:04:06.165Z,0
2017-02-18T04:05:14.837Z,0
2017-02-18T04:06:25.045Z,0
2017-02-18T04:07:34.500Z,0
2017-02-18T04:08:43.959Z,0
2017-02-18T04:09:53.033Z,0
2017-02-18T04:11:02.491Z,0
2017-02-18T04:12:12.697Z,0
2017-02-18T04:13:21.774Z,0
2017-02-18T04:14:31.621Z,0
2017-02-18T04:15:40.322Z,0
2017-02-18T04:16:49.786Z,0
2017-02-18T04:17:58.474Z,0
2017-02-18T04:19:07.911Z,0
2017-02-18T04:20:16.965Z,0
2017-02-18T04:21:25.658Z,0
2017-02-18T04:22:35.491Z,0
2017-02-18T04:23:44.949Z,0
2017-02-18T04:24:54.400Z,0
2017-02-18T04:26:03.864Z,0
2017-02-18T04:27:12.927Z,0
2017-02-18T04:28:22.777Z,0
2017-02-18T04:29:31.459Z,0
2017-02-18T04:30:41.302Z,0
2017-02-18T04:31:50.378Z,0
2017-02-18T04:32:59.828Z,0
2017-02-18T04:34:09.288Z,0
2017-02-18T04:35:19.114Z,0
2017-02-18T04:36:28.567Z,0
2017-02-18T04:37:37.257Z,0
2017-02-18T04:38:47.088Z,0
2017-02-18T04:39:56.149Z,0
2017-02-18T04:41:05.215Z,0
2017-02-18T04:42:14.658Z,0
2017-02-18T04:43:24.112Z,0
2017-02-18T04:44:33.192Z,0
2017-02-18T04:45:41.872Z,0
2017-02-18T04:46:51.336Z,0
2017-02-18T04:48:00.414Z,0
2017-02-18T04:49:09.491Z,0
2017-02-18T04:50:18.200Z,0
2017-02-18T04:51:27.263Z,0
2017-02-18T04:52:36.319Z,0
2017-02-18T04:53:45.404Z,0
2017-02-18T04:54:54.472Z,0
2017-02-18T04:56:04.669Z,0
2017-02-18T04:57:13.747Z,0
2017-02-18T04:58:23.197Z,0
2017-02-18T04:59:32.258Z,0
2017-02-18T05:00:42.111Z,0
2017-02-18T05:01:51.545Z,0
2017-02-18T05:03:00.621Z,0
2017-02-18T05:04:10.066Z,0
2017-02-18T05:05:19.536Z,0
2017-02-18T05:06:28.621Z,0
2017-02-18T05:07:38.092Z,0
2017-02-18T05:08:47.187Z,0
2017-02-18T05:09:56.646Z,0
2017-02-18T05:11:05.719Z,0
2017-02-18T05:12:14.785Z,0
2017-02-18T05:13:23.852Z,0
2017-02-18T05:14:32.922Z,0
2017-02-18T05:15:42.375Z,0
2017-02-18T05:16:51.461Z,0
2017-02-18T05:18:00.911Z,0
2017-02-18T05:19:10.738Z,0
2017-02-18T05:20:19.803Z,0
2017-02-18T05:21:28.500Z,0
2017-02-18T05:22:38.717Z,0
2017-02-18T05:23:47.853Z,0
2017-02-18T05:24:57.686Z,0
2017-02-18T05:26:07.523Z,0
2017-02-18T05:27:16.206Z,0
2017-02-18T05:28:26.054Z,0
2017-02-18T05:29:35.503Z,0
2017-02-18T05:30:45.328Z,0
2017-02-18T05:31:54.801Z,0
2017-02-18T05:33:04.249Z,0
2017-02-18T05:34:13.700Z,0
2017-02-18T05:35:23.537Z,0
2017-02-18T05:36:32.597Z,0
2017-02-18T05:37:42.035Z,0
2017-02-18T05:38:51.491Z,0
2017-02-18T05:40:00.941Z,0
2017-02-18T05:41:11.154Z,0
2017-02-18T05:42:21.019Z,0
2017-02-18T05:43:30.478Z,0
2017-02-18T05:44:39.560Z,0
2017-02-18T05:45:48.642Z,0
2017-02-18T05:46:57.741Z,0
2017-02-18T05:48:06.436Z,0
2017-02-18T05:49:15.963Z,0
2017-02-18T05:50:25.780Z,0
2017-02-18T05:51:34.465Z,0
2017-02-18T05:52:44.308Z,0
2017-02-18T05:53:53.753Z,0
2017-02-18T05:55:03.202Z,0
2017-02-18T05:56:12.269Z,0
2017-02-18T05:57:21.734Z,0
2017-02-18T05:58:31.584Z,0
2017-02-18T05:59:40.651Z,0
2017-02-18T06:00:50.110Z,0
2017-02-18T06:01:58.814Z,0
2017-02-18T06:03:07.874Z,0
2017-02-18T06:04:17.345Z,0
2017-02-18T06:05:26.802Z,0
2017-02-18T06:06:36.267Z,0
2017-02-18T06:07:46.088Z,0
2017-02-18T06:08:55.903Z,0
2017-02-18T06:10:05.365Z,0
2017-02-18T06:11:14.819Z,0
2017-02-18T06:12:23.880Z,0
2017-02-18T06:13:32.963Z,0
2017-02-18T06:14:42.411Z,0
2017-02-18T06:15:51.850Z,0
2017-02-18T06:17:01.319Z,0
2017-02-18T06:18:11.158Z,0
2017-02-18T06:19:20.994Z,0
2017-02-18T06:20:30.069Z,0
2017-02-18T06:21:39.162Z,0
2017-02-18T06:22:48.607Z,0
2017-02-18T06:23:58.449Z,0
2017-02-18T06:25:07.901Z,0
2017-02-18T06:26:16.978Z,0
2017-02-18T06:27:26.063Z,0
2017-02-18T06:28:35.137Z,0
2017-02-18T06:29:44.213Z,0
2017-02-18T06:30:53.688Z,0
2017-02-18T06:32:02.762Z,0
2017-02-18T06:33:11.820Z,0
2017-02-18T06:34:20.892Z,5
2017-02-18T06:35:30.727Z,5
2017-02-18T06:36:39.807Z,5
2017-02-18T06:37:49.659Z,5
2017-02-18T06:38:58.736Z,5
2017-02-18T06:40:08.208Z,5
2017-02-18T06:41:17.649Z,10
2017-02-18T06:42:26.728Z,10
2017-02-18T06:43:35.805Z,10
2017-02-18T06:44:45.641Z,10
2017-02-18T06:45:54.725Z,15
2017-02-18T06:47:04.562Z,15
2017-02-18T06:48:13.637Z,15
2017-02-18T06:49:23.097Z,15
2017-02-18T06:50:32.180Z,20
2017-02-18T06:51:41.647Z,20
2017-02-18T06:52:51.122Z,20
2017-02-18T06:54:00.182Z,25
2017-02-18T06:55:09.263Z,25
2017-02-18T06:56:18.321Z,30
2017-02-18T06:57:27.398Z,30
2017-02-18T06:58:36.088Z,30
2017-02-18T06:59:44.789Z,30
2017-02-18T07:00:53.874Z,35
2017-02-18T07:02:02.948Z,35
2017-02-18T07:03:12.792Z,40
2017-02-18T07:04:22.649Z,40
2017-02-18T07:05:31.719Z,45
2017-02-18T07:06:41.945Z,45
2017-02-18T07:07:51.779Z,50
2017-02-18T07:09:01.638Z,50
2017-02-18T07:10:10.705Z,55
2017-02-18T07:11:19.770Z,55
2017-02-18T07:12:28.862Z,55
2017-02-18T07:13:37.554Z,60
2017-02-18T07:14:46.646Z,60
2017-02-18T07:15:55.337Z,65
2017-02-18T07:17:04.421Z,65
2017-02-18T07:18:13.497Z,70
2017-02-18T07:19:22.941Z,70
2017-02-18T07:20:32.012Z,75
2017-02-18T07:21:41.076Z,75
2017-02-18T07:22:50.153Z,75
2017-02-18T07:23:59.219Z,80
2017-02-18T07:25:09.064Z,80
2017-02-18T07:26:18.156Z,85
2017-02-18T07:27:27.226Z,85
2017-02-18T07:28:36.310Z,90
2017-02-18T07:29:46.563Z,95
2017-02-18T07:30:55.251Z,95
2017-02-18T07:32:04.313Z,95
2017-02-18T07:33:13.782Z,85
2017-02-18T07:34:22.844Z,75
2017-02-18T07:35:32.671Z,90
2017-02-18T07:36:42.133Z,105
2017-02-18T07:37:51.217Z,110
2017-02-18T07:39:00.665Z,100
2017-02-18T07:40:10.170Z,85
2017-02-18T07:41:19.615Z,95
2017-02-18T07:42:29.064Z,120
2017-02-18T07:43:38.143Z,125
2017-02-18T07:44:46.822Z,125
2017-02-18T07:45:56.655Z,125
2017-02-18T07:47:05.721Z,120
2017-02-18T07:48:14.793Z,120
2017-02-18T07:49:23.497Z,125
2017-02-18T07:50:32.575Z,135
2017-02-18T07:51:42.023Z,145
2017-02-18T07:52:50.713Z,145
2017-02-18T07:54:00.545Z,145
2017-02-18T07:55:10.838Z,155
2017-02-18T07:56:20.692Z,165
2017-02-18T07:57:30.521Z,170
2017-02-18T07:58:40.352Z,175
2017-02-18T07:59:49.417Z,165
2017-02-18T08:00:58.098Z,155
2017-02-18T08:02:06.781Z,155
2017-02-18T08:03:16.244Z,175
2017-02-18T08:04:25.306Z,185
2017-02-18T08:05:33.994Z,190
2017-02-18T08:06:42.708Z,185
2017-02-18T08:07:51.790Z,185
2017-02-18T08:09:01.250Z,195
2017-02-18T08:10:10.695Z,190
2017-02-18T08:11:19.768Z,200
2017-02-18T08:12:28.465Z,215
2017-02-18T08:13:38.728Z,225
2017-02-18T08:14:48.193Z,240
2017-02-18T08:15:57.267Z,240
2017-02-18T08:17:06.727Z,235
2017-02-18T08:18:16.198Z,245
2017-02-18T08:19:25.652Z,265
2017-02-18T08:20:34.390Z,270
2017-02-18T08:21:44.222Z,260
2017-02-18T08:22:53.303Z,235
2017-02-18T08:24:02.767Z,225
2017-02-18T08:25:12.236Z,240
2017-02-18T08:26:21.706Z,250
2017-02-18T08:27:30.381Z,260
2017-02-18T08:28:39.480Z,265
2017-02-18T08:29:49.301Z,270
2017-02-18T08:30:58.760Z,275
2017-02-18T08:32:08.220Z,270
2017-02-18T08:33:17.667Z,265
2017-02-18T08:34:26.743Z,260
2017-02-18T08:35:35.430Z,270
2017-02-18T08:36:44.875Z,285
2017-02-18T08:37:53.935Z,290
2017-02-18T08:39:03.412Z,290
2017-02-18T08:40:12.491Z,285
2017-02-18T08:41:21.945Z,290
2017-02-18T08:42:31.033Z,310
2017-02-18T08:43:40.113Z,330
2017-02-18T08:44:49.190Z,345
2017-02-18T08:45:58.278Z,355
2017-02-18T08:47:07.345Z,355
2017-02-18T08:48:16.807Z,355
2017-02-18T08:49:25.928Z,365
2017-02-18T08:50:35.021Z,385
2017-02-18T08:51:44.883Z,395
2017-02-18T08:52:53.949Z,380
2017-02-18T08:54:03.409Z,355
2017-02-18T08:55:12.481Z,365
2017-02-18T08:56:22.318Z,415
2017-02-18T08:57:31.384Z,445
2017-02-18T08:58:40.474Z,450
2017-02-18T08:59:49.546Z,445
2017-02-18T09:00:59.011Z,430
2017-02-18T09:02:07.712Z,435
2017-02-18T09:03:17.183Z,455
2017-02-18T09:04:27.038Z,465
2017-02-18T09:05:36.501Z,445
2017-02-18T09:06:45.976Z,415
2017-02-18T09:07:55.049Z,430
2017-02-18T09:09:04.511Z,475
2017-02-18T09:10:13.600Z,460
2017-02-18T09:11:22.686Z,480
2017-02-18T09:12:32.144Z,495
2017-02-18T09:13:41.207Z,495
2017-02-18T09:14:51.037Z,490
2017-02-18T09:16:00.513Z,465
2017-02-18T09:17:09.579Z,465
2017-02-18T09:18:18.277Z,480
2017-02-18T09:19:26.966Z,490
2017-02-18T09:20:36.416Z,490
2017-02-18T09:21:45.865Z,520
2017-02-18T09:22:54.928Z,530
2017-02-18T09:24:03.998Z,465
2017-02-18T09:25:13.070Z,475
2017-02-18T09:26:22.160Z,510
2017-02-18T09:27:31.250Z,520
2017-02-18T09:28:39.943Z,520
2017-02-18T09:29:49.407Z,505
2017-02-18T09:30:58.871Z,495
2017-02-18T09:32:08.329Z,490
2017-02-18T09:33:17.406Z,495
2017-02-18T09:34:26.105Z,505
2017-02-18T09:35:36.318Z,525
2017-02-18T09:36:45.768Z,540
2017-02-18T09:37:54.839Z,560
2017-02-18T09:39:03.910Z,560
2017-02-18T09:40:12.999Z,580
2017-02-18T09:41:22.448Z,620
2017-02-18T09:42:31.938Z,670
2017-02-18T09:43:41.804Z,775
2017-02-18T09:44:50.909Z,1015
2017-02-18T09:46:00.770Z,635
2017-02-18T09:47:10.251Z,595
2017-02-18T09:48:19.315Z,685
2017-02-18T09:49:29.165Z,820
2017-02-18T09:50:38.281Z,805
2017-02-18T09:51:47.731Z,920
2017-02-18T09:52:57.188Z,910
2017-02-18T09:54:07.033Z,700
2017-02-18T09:55:15.721Z,770
2017-02-18T09:56:24.796Z,835
2017-02-18T09:57:34.249Z,705
2017-02-18T09:58:43.326Z,620
2017-02-18T09:59:52.407Z,670
2017-02-18T10:01:01.465Z,620
2017-02-18T10:02:11.301Z,725
2017-02-18T10:03:20.382Z,710
2017-02-18T10:04:29.454Z,955
2017-02-18T10:05:38.912Z,1020
2017-02-18T10:06:48.746Z,1050
2017-02-18T10:07:57.817Z,1340
2017-02-18T10:09:07.285Z,1260
2017-02-18T10:10:17.522Z,1215
2017-02-18T10:11:26.597Z,1090
2017-02-18T10:12:36.449Z,1290
2017-02-18T10:13:45.898Z,1315
2017-02-18T10:14:54.602Z,935
2017-02-18T10:16:04.841Z,1085
2017-02-18T10:17:13.527Z,870
2017-02-18T10:18:22.217Z,680
2017-02-18T10:19:31.678Z,1035
2017-02-18T10:20:40.758Z,1220
2017-02-18T10:21:50.234Z,1260
2017-02-18T10:22:59.337Z,1290
2017-02-18T10:24:09.174Z,1230
2017-02-18T10:25:18.638Z,1280
2017-02-18T10:26:27.337Z,1315
2017-02-18T10:27:36.407Z,1305
2017-02-18T10:28:45.494Z,1330
2017-02-18T10:29:55.021Z,1265
2017-02-18T10:31:03.711Z,1280
2017-02-18T10:32:12.849Z,1310
2017-02-18T10:33:21.987Z,1320
2017-02-18T10:34:31.853Z,1395
2017-02-18T10:35:41.325Z,1370
2017-02-18T10:36:50.390Z,1380
2017-02-18T10:38:00.238Z,1375
2017-02-18T10:39:08.953Z,1425
2017-02-18T10:40:18.480Z,1440
2017-02-18T10:41:27.949Z,1290
2017-02-18T10:42:37.043Z,1350
2017-02-18T10:43:46.127Z,1405
2017-02-18T10:44:55.231Z,1435
2017-02-18T10:46:04.313Z,1415
2017-02-18T10:47:13.408Z,1340
2017-02-18T10:48:22.504Z,1335
2017-02-18T10:49:31.968Z,1455
2017-02-18T10:50:41.427Z,1410
2017-02-18T10:51:50.907Z,1440
2017-02-18T10:52:59.985Z,1390
2017-02-18T10:54:09.082Z,1450
2017-02-18T10:55:18.167Z,1455
2017-02-18T10:56:27.257Z,1500
2017-02-18T10:57:36.337Z,1445
2017-02-18T10:58:45.041Z,1310
2017-02-18T10:59:54.131Z,1385
2017-02-18T11:01:04.366Z,1415
2017-02-18T11:02:13.875Z,1410
2017-02-18T11:03:22.953Z,1430
2017-02-18T11:04:32.053Z,1410
2017-02-18T11:05:41.131Z,1425
2017-02-18T11:06:50.581Z,1470
2017-02-18T11:08:00.032Z,1495
2017-02-18T11:09:09.102Z,1350
2017-02-18T11:10:18.203Z,1360
2017-02-18T11:11:27.279Z,1390
2017-02-18T11:12:36.368Z,1505
2017-02-18T11:13:45.451Z,1535
2017-02-18T11:14:54.529Z,1550
2017-02-18T11:16:03.626Z,395
2017-02-18T11:17:12.723Z,1545
2017-02-18T11:18:22.211Z,1535
2017-02-18T11:19:31.676Z,1520
2017-02-18T11:20:41.518Z,1420
2017-02-18T11:21:50.609Z,1360
2017-02-18T11:23:00.097Z,1425
2017-02-18T11:24:09.989Z,1470
2017-02-18T11:25:18.696Z,1560
2017-02-18T11:26:27.792Z,1400
2017-02-18T11:27:37.257Z,1210
2017-02-18T11:28:46.334Z,1120
2017-02-18T11:29:55.419Z,1105
2017-02-18T11:31:04.877Z,395
2017-02-18T11:32:14.731Z,370
2017-02-18T11:33:23.811Z,370
2017-02-18T11:34:32.522Z,420
2017-02-18T11:35:42.358Z,1215
2017-02-18T11:36:51.055Z,630
2017-02-18T11:38:00.910Z,650
2017-02-18T11:39:10.377Z,665
2017-02-18T11:40:19.463Z,875
2017-02-18T11:41:28.546Z,780
2017-02-18T11:42:37.633Z,650
2017-02-18T11:43:47.084Z,620
2017-02-18T11:44:56.920Z,600
2017-02-18T11:46:06.754Z,580
2017-02-18T11:47:16.202Z,545
2017-02-18T11:48:25.652Z,485
2017-02-18T11:49:34.738Z,445
2017-02-18T11:50:44.191Z,425
2017-02-18T11:51:53.653Z,425
2017-02-18T11:53:03.105Z,440
2017-02-18T11:54:12.572Z,470
2017-02-18T11:55:21.260Z,475
2017-02-18T11:56:30.728Z,485
2017-02-18T11:57:46.467Z,500
2017-02-18T11:58:55.545Z,505
2017-02-18T12:00:05.039Z,485
2017-02-18T12:01:14.510Z,460
2017-02-18T12:02:23.645Z,455
2017-02-18T12:03:32.728Z,450
2017-02-18T12:04:41.799Z,445
2017-02-18T12:05:51.645Z,445
2017-02-18T12:07:00.718Z,450
2017-02-18T12:08:10.172Z,445
2017-02-18T12:09:19.639Z,440
2017-02-18T12:10:29.471Z,430
2017-02-18T12:11:39.317Z,430
2017-02-18T12:12:48.007Z,455
2017-02-18T12:13:57.089Z,450
2017-02-18T12:15:06.179Z,455
2017-02-18T12:16:15.265Z,460
2017-02-18T12:17:25.046Z,470
2017-02-18T12:18:34.505Z,490
2017-02-18T12:19:43.576Z,530
2017-02-18T12:20:53.427Z,575
2017-02-18T12:22:02.514Z,590
2017-02-18T12:23:12.737Z,600
2017-02-18T12:24:22.210Z,610
2017-02-18T12:25:30.929Z,610
2017-02-18T12:26:39.620Z,575
2017-02-18T12:27:49.450Z,535
2017-02-18T12:28:59.300Z,500
2017-02-18T12:30:08.388Z,485
2017-02-18T12:31:17.837Z,485
2017-02-18T12:32:27.305Z,490
2017-02-18T12:33:35.992Z,490
2017-02-18T12:34:45.081Z,490
2017-02-18T12:35:54.308Z,490
2017-02-18T12:37:03.805Z,500
2017-02-18T12:38:13.290Z,510
2017-02-18T12:39:22.367Z,515
2017-02-18T12:40:31.906Z,530
2017-02-18T12:41:41.399Z,540
2017-02-18T12:42:50.501Z,540
2017-02-18T12:43:59.605Z,530
2017-02-18T12:45:09.063Z,525
2017-02-18T12:46:18.510Z,510
2017-02-18T12:47:27.981Z,500
2017-02-18T12:48:37.449Z,490
2017-02-18T12:49:46.953Z,485
2017-02-18T12:50:56.419Z,500
2017-02-18T12:52:06.270Z,535
2017-02-18T12:53:15.718Z,570
2017-02-18T12:54:25.175Z,615
2017-02-18T12:55:34.236Z,660
2017-02-18T12:56:43.309Z,675
2017-02-18T12:57:52.001Z,650
2017-02-18T12:59:00.724Z,620
2017-02-18T13:00:09.825Z,585
2017-02-18T13:01:19.281Z,555
2017-02-18T13:02:28.027Z,530
2017-02-18T13:03:37.114Z,520
2017-02-18T13:04:46.567Z,500
2017-02-18T13:05:55.274Z,480
2017-02-18T13:07:04.370Z,460
2017-02-18T13:08:13.444Z,450
2017-02-18T13:09:22.993Z,440
2017-02-18T13:10:32.831Z,415
2017-02-18T13:11:42.737Z,405
2017-02-18T13:12:52.257Z,400
2017-02-18T13:14:02.470Z,405
2017-02-18T13:15:12.310Z,425
2017-02-18T13:16:21.772Z,460
2017-02-18T13:17:31.321Z,495
2017-02-18T13:18:41.151Z,520
2017-02-18T13:19:50.725Z,540
2017-02-18T13:20:59.420Z,560
2017-02-18T13:22:08.110Z,580
2017-02-18T13:23:16.816Z,580
2017-02-18T13:24:26.651Z,600
2017-02-18T13:25:36.593Z,635
2017-02-18T13:26:46.071Z,665
2017-02-18T13:27:55.913Z,660
2017-02-18T13:29:05.371Z,635
2017-02-18T13:30:14.579Z,610
2017-02-18T13:31:23.271Z,590
2017-02-18T13:32:32.361Z,575
2017-02-18T13:33:41.820Z,560
2017-02-18T13:34:51.297Z,555
2017-02-18T13:36:00.749Z,560
2017-02-18T13:37:10.611Z,560
2017-02-18T13:38:19.300Z,545
2017-02-18T13:39:28.365Z,530
2017-02-18T13:40:37.830Z,530
2017-02-18T13:41:47.310Z,525
2017-02-18T13:42:56.388Z,535
2017-02-18T13:44:06.375Z,525
2017-02-18T13:45:15.073Z,520
2017-02-18T13:46:24.529Z,515
2017-02-18T13:47:33.594Z,515
2017-02-18T13:48:43.063Z,510
2017-02-18T13:49:52.522Z,510
2017-02-18T13:51:01.970Z,505
2017-02-18T13:52:11.044Z,505
2017-02-18T13:53:20.504Z,500
2017-02-18T13:54:29.986Z,505
2017-02-18T13:55:39.814Z,510
2017-02-18T13:56:49.258Z,505
2017-02-18T13:57:58.730Z,495
2017-02-18T13:59:08.942Z,465
2017-02-18T14:00:18.009Z,435
2017-02-18T14:01:26.694Z,415
2017-02-18T14:02:36.147Z,395
2017-02-18T14:03:45.216Z,390
2017-02-18T14:04:54.684Z,395
2017-02-18T14:06:04.161Z,400
2017-02-18T14:07:13.630Z,400
2017-02-18T14:08:22.326Z,400
2017-02-18T14:09:32.221Z,390
2017-02-18T14:10:41.676Z,385
2017-02-18T14:11:50.760Z,375
2017-02-18T14:12:59.836Z,360
2017-02-18T14:14:41.746Z,345
2017-02-18T14:15:50.834Z,340
2017-02-18T14:16:59.513Z,330
2017-02-18T14:18:08.660Z,330
2017-02-18T14:19:17.357Z,325
2017-02-18T14:20:26.422Z,320
2017-02-18T14:21:35.876Z,325
2017-02-18T14:22:44.553Z,330
2017-02-18T14:23:54.018Z,340
2017-02-18T14:25:04.298Z,345
2017-02-18T14:26:12.986Z,355
2017-02-18T14:27:22.450Z,370
2017-02-18T14:28:31.132Z,380
2017-02-18T14:29:40.212Z,400
2017-02-18T14:30:49.290Z,415
2017-02-18T14:31:58.382Z,410
2017-02-18T14:33:08.610Z,400
2017-02-18T14:34:17.306Z,385
2017-02-18T14:35:26.001Z,365
2017-02-18T14:36:35.091Z,340
2017-02-18T14:37:44.551Z,320
2017-02-18T14:38:53.998Z,310
2017-02-18T14:40:03.100Z,295
2017-02-18T14:41:12.556Z,280
2017-02-18T14:42:21.630Z,275
2017-02-18T14:43:31.459Z,280
2017-02-18T14:44:40.553Z,280
2017-02-18T14:45:49.254Z,285
2017-02-18T14:46:58.708Z,280
2017-02-18T14:48:08.556Z,275
2017-02-18T14:49:17.642Z,275
2017-02-18T14:50:27.488Z,270
2017-02-18T14:51:36.171Z,265
2017-02-18T14:52:44.880Z,265
2017-02-18T14:53:54.319Z,255
2017-02-18T14:55:03.394Z,245
2017-02-18T14:56:12.473Z,235
2017-02-18T14:57:21.223Z,235
2017-02-18T14:58:30.320Z,240
2017-02-18T14:59:39.764Z,255
2017-02-18T15:00:49.252Z,265
2017-02-18T15:01:58.332Z,270
2017-02-18T15:03:08.177Z,275
2017-02-18T15:04:17.250Z,280
2017-02-18T15:05:26.328Z,275
2017-02-18T15:06:35.774Z,270
2017-02-18T15:07:45.226Z,270
2017-02-18T15:08:55.071Z,255
2017-02-18T15:10:04.567Z,235
2017-02-18T15:11:14.405Z,225
2017-02-18T15:12:23.482Z,220
2017-02-18T15:13:32.950Z,215
2017-02-18T15:14:42.038Z,210
2017-02-18T15:15:51.111Z,210
2017-02-18T15:17:00.562Z,210
2017-02-18T15:18:10.016Z,210
2017-02-18T15:19:19.129Z,210
2017-02-18T15:20:28.217Z,205
2017-02-18T15:21:37.304Z,195
2017-02-18T15:22:46.769Z,185
2017-02-18T15:23:56.225Z,175
2017-02-18T15:25:05.322Z,175
2017-02-18T15:26:15.537Z,170
2017-02-18T15:27:24.625Z,175
2017-02-18T15:28:33.322Z,175
2017-02-18T15:29:42.397Z,180
2017-02-18T15:30:51.469Z,180
2017-02-18T15:32:00.177Z,185
2017-02-18T15:33:09.622Z,185
2017-02-18T15:34:19.071Z,185
2017-02-18T15:35:27.765Z,175
2017-02-18T15:36:37.240Z,170
2017-02-18T15:37:47.080Z,170
2017-02-18T15:38:56.531Z,170
2017-02-18T15:40:05.246Z,175
2017-02-18T15:41:14.338Z,175
2017-02-18T15:42:23.413Z,165
2017-02-18T15:43:32.868Z,160
2017-02-18T15:44:42.329Z,155
2017-02-18T15:45:51.032Z,150
2017-02-18T15:47:00.875Z,145
2017-02-18T15:48:10.342Z,135
2017-02-18T15:49:19.416Z,130
2017-02-18T15:50:28.500Z,125
2017-02-18T15:51:37.594Z,125
2017-02-18T15:52:47.047Z,120
2017-02-18T15:53:56.910Z,115
2017-02-18T15:55:05.612Z,115
2017-02-18T15:56:14.306Z,110
2017-02-18T15:57:23.384Z,100
2017-02-18T15:58:32.450Z,100
2017-02-18T15:59:42.298Z,95
2017-02-18T16:00:51.368Z,95
2017-02-18T16:02:00.457Z,95
2017-02-18T16:03:09.915Z,95
2017-02-18T16:04:19.372Z,95
2017-02-18T16:05:28.818Z,90
2017-02-18T16:06:38.297Z,85
2017-02-18T16:07:47.360Z,80
2017-02-18T16:08:56.420Z,75
2017-02-18T16:10:05.483Z,70
2017-02-18T16:11:14.553Z,65
2017-02-18T16:12:23.607Z,65
2017-02-18T16:13:33.087Z,60
2017-02-18T16:14:42.554Z,60
2017-02-18T16:15:51.615Z,60
2017-02-18T16:17:01.075Z,60
2017-02-18T16:18:10.541Z,60
2017-02-18T16:19:19.604Z,60
2017-02-18T16:20:29.097Z,55
2017-02-18T16:21:38.167Z,55